Maersk Windhoek — 3FWJ3 — position and weather

sailwx.info

Track history (hours):
 
Tides and Currents Weather Stations Pressure Air Temp Water Temp Dewpoint Dewpoint Depression Visibility Wind Speed Wind Dir Waves Ship Positions

Maersk Windhoek

Last reported at 2015-Apr-08 03:10 UTC. Time now 2015-Apr-21 17:53 UTC.
Position N 27°14' W 014°19'.
Warning: this ship's position is 13 days out of date.

Length 172 m; draft 9.5 m.

Type: Ship (hazmat cat C). MMSI: 370431000.

Date/timePositionNaut miles runAvg speedWind from/ knotsBaromVisibWave heightAir tempDewpointWater temp
2015-Apr-08 03:10N 27°14' W 014°19'1116.2
2015-Apr-08 02:30N 27°22' W 014°11'3216.6
2015-Apr-08 00:33N 27°47' W 013°48'2016.5
2015-Apr-07 23:19N 28°03' W 013°34'3016.5
2015-Apr-07 21:28N 28°29' W 013°15'59816.1
2015-Apr-06 08:20N 35°59' W 005°29'810.1
2015-Apr-06 07:33N 36°05' W 005°23'4 3.7
2015-Apr-06 06:32N 36°08' W 005°26'0 0.0
2015-Apr-06 05:17N 36°08' W 005°26'0 0.0
2015-Apr-06 04:32N 36°08' W 005°26'0 0.0
2015-Apr-05 23:14N 36°08' W 005°26'0 0.0
2015-Apr-05 22:14N 36°08' W 005°26'0 0.0
2015-Apr-05 21:32N 36°08' W 005°26'0 0.0
2015-Apr-05 20:20N 36°08' W 005°26'0 0.0
2015-Apr-05 19:26N 36°08' W 005°26'0 0.0
2015-Apr-05 18:23N 36°08' W 005°26'0 0.0
2015-Apr-05 16:29N 36°08' W 005°26'0 0.0
2015-Apr-05 15:17N 36°08' W 005°26'1 1.5
2015-Apr-05 14:33N 36°09' W 005°26'1 0.6
2015-Apr-05 13:22N 36°10' W 005°25'0 0.0
2015-Apr-05 12:31N 36°10' W 005°25'0 0.0
2015-Apr-05 11:31N 36°10' W 005°26'0 0.0
2015-Apr-05 10:31N 36°10' W 005°26'0 0.0
2015-Apr-05 09:31N 36°10' W 005°26'0 0.0
2015-Apr-05 08:22N 36°10' W 005°26'0 0.0
2015-Apr-05 07:31N 36°10' W 005°26'0 0.0
2015-Apr-05 06:31N 36°10' W 005°26'3 2.6
2015-Apr-05 05:33N 36°08' W 005°24'6 5.9
2015-Apr-05 04:33N 36°06' W 005°16'1 1.2
2015-Apr-05 03:33N 36°05' W 005°17'1010.4
2015-Apr-05 02:33N 35°57' W 005°25'  
2015-Mar-31 20:32N 35°33' W 006°37'3416.1
2015-Mar-31 18:24N 35°08' W 007°07'9215.7
2015-Mar-31 12:34N 34°02' W 008°25'12816.0
2015-Mar-31 04:33N 32°33' W 010°14'3115.4
2015-Mar-31 02:33N 32°07' W 010°35'1515.2
2015-Mar-31 01:33N 31°54' W 010°44'3314.9
2015-Mar-30 23:21N 31°26' W 011°05'1214.4
2015-Mar-30 22:30N 31°16' W 011°12'1414.3
2015-Mar-30 21:34N 31°05' W 011°21'1514.5
2015-Mar-30 20:33N 30°52' W 011°30'1414.2
2015-Mar-30 19:34N 30°40' W 011°38'1514.6
2015-Mar-30 18:34N 30°28' W 011°47'1515.2
2015-Mar-30 17:33N 30°15' W 011°56'1515.1
2015-Mar-30 16:33N 30°02' W 012°06'8215.3
2015-Mar-30 11:12N 28°53' W 012°57'6116.2
2015-Mar-30 07:27N 28°02' W 013°34'1516.2
2015-Mar-30 06:31N 27°50' W 013°45'1515.9
2015-Mar-30 05:34N 27°38' W 013°55'1715.7
2015-Mar-30 04:28N 27°26' W 014°09'1415.9
2015-Mar-30 03:33N 27°14' W 014°19'1615.8
2015-Mar-30 02:33N 27°02' W 014°30'1615.8
2015-Mar-30 01:31N 26°49' W 014°41'2015.8
2015-Mar-30 00:14N 26°33' W 014°56'26215.7
2015-Mar-29 07:31N 23°11' W 017°59'  
Track history (hours):
 
Tides and Currents Weather Stations Pressure Air Temp Water Temp Dewpoint Dewpoint Depression Visibility Wind Speed Wind Dir Waves Ship Positions

Maersk Windhoek

Last reported at 2015-Apr-08 03:10 UTC. Time now 2015-Apr-21 17:53 UTC.
Position N 27°14' W 014°19'.
Warning: this ship's position is 13 days out of date.

Length 172 m; draft 9.5 m.

Type: Ship (hazmat cat C). MMSI: 370431000.

Date/timePositionNaut miles runAvg speedWind from/ knotsBaromVisibWave heightAir tempDewpointWater temp
2015-Apr-08 03:10N 27°14' W 014°19'1116.2
2015-Apr-08 02:30N 27°22' W 014°11'3216.6
2015-Apr-08 00:33N 27°47' W 013°48'2016.5
2015-Apr-07 23:19N 28°03' W 013°34'3016.5
2015-Apr-07 21:28N 28°29' W 013°15'59816.1
2015-Apr-06 08:20N 35°59' W 005°29'810.1
2015-Apr-06 07:33N 36°05' W 005°23'4 3.7
2015-Apr-06 06:32N 36°08' W 005°26'0 0.0
2015-Apr-06 05:17N 36°08' W 005°26'0 0.0
2015-Apr-06 04:32N 36°08' W 005°26'0 0.0
2015-Apr-05 23:14N 36°08' W 005°26'0 0.0
2015-Apr-05 22:14N 36°08' W 005°26'0 0.0
2015-Apr-05 21:32N 36°08' W 005°26'0 0.0
2015-Apr-05 20:20N 36°08' W 005°26'0 0.0
2015-Apr-05 19:26N 36°08' W 005°26'0 0.0
2015-Apr-05 18:23N 36°08' W 005°26'0 0.0
2015-Apr-05 16:29N 36°08' W 005°26'0 0.0
2015-Apr-05 15:17N 36°08' W 005°26'1 1.5
2015-Apr-05 14:33N 36°09' W 005°26'1 0.6
2015-Apr-05 13:22N 36°10' W 005°25'0 0.0
2015-Apr-05 12:31N 36°10' W 005°25'0 0.0
2015-Apr-05 11:31N 36°10' W 005°26'0 0.0
2015-Apr-05 10:31N 36°10' W 005°26'0 0.0
2015-Apr-05 09:31N 36°10' W 005°26'0 0.0
2015-Apr-05 08:22N 36°10' W 005°26'0 0.0
2015-Apr-05 07:31N 36°10' W 005°26'0 0.0
2015-Apr-05 06:31N 36°10' W 005°26'3 2.6
2015-Apr-05 05:33N 36°08' W 005°24'6 5.9
2015-Apr-05 04:33N 36°06' W 005°16'1 1.2
2015-Apr-05 03:33N 36°05' W 005°17'1010.4
2015-Apr-05 02:33N 35°57' W 005°25'  
2015-Mar-31 20:32N 35°33' W 006°37'3416.1
2015-Mar-31 18:24N 35°08' W 007°07'9215.7
2015-Mar-31 12:34N 34°02' W 008°25'12816.0
2015-Mar-31 04:33N 32°33' W 010°14'3115.4
2015-Mar-31 02:33N 32°07' W 010°35'1515.2
2015-Mar-31 01:33N 31°54' W 010°44'3314.9
2015-Mar-30 23:21N 31°26' W 011°05'1214.4
2015-Mar-30 22:30N 31°16' W 011°12'1414.3
2015-Mar-30 21:34N 31°05' W 011°21'1514.5
2015-Mar-30 20:33N 30°52' W 011°30'1414.2
2015-Mar-30 19:34N 30°40' W 011°38'1514.6
2015-Mar-30 18:34N 30°28' W 011°47'1515.2
2015-Mar-30 17:33N 30°15' W 011°56'1515.1
2015-Mar-30 16:33N 30°02' W 012°06'8215.3
2015-Mar-30 11:12N 28°53' W 012°57'6116.2
2015-Mar-30 07:27N 28°02' W 013°34'1516.2
2015-Mar-30 06:31N 27°50' W 013°45'1515.9
2015-Mar-30 05:34N 27°38' W 013°55'1715.7
2015-Mar-30 04:28N 27°26' W 014°09'1415.9
2015-Mar-30 03:33N 27°14' W 014°19'1615.8
2015-Mar-30 02:33N 27°02' W 014°30'1615.8
2015-Mar-30 01:31N 26°49' W 014°41'2015.8
2015-Mar-30 00:14N 26°33' W 014°56'26215.7
2015-Mar-29 07:31N 23°11' W 017°59'  

Dump ship's entire track history